createdAt,value
2022-12-07T00:04:52.620Z,19.90
2022-12-07T00:09:56.135Z,23.60
2022-12-07T00:14:59.549Z,20.20
2022-12-07T00:20:03.174Z,20.80
2022-12-07T00:25:07.296Z,20.40
2022-12-07T00:30:11.015Z,16.80
2022-12-07T00:35:15.216Z,20.40
2022-12-07T00:40:18.765Z,20.00
2022-12-07T00:45:22.075Z,20.00
2022-12-07T00:50:25.385Z,18.30
2022-12-07T00:55:28.772Z,19.10
2022-12-07T01:00:33.032Z,18.70
2022-12-07T01:05:36.650Z,19.20
2022-12-07T01:10:39.958Z,19.10
2022-12-07T01:15:45.330Z,18.50
2022-12-07T01:21:01.840Z,16.50
2022-12-07T01:26:09.061Z,19.20
2022-12-07T01:31:18.459Z,17.70
2022-12-07T01:36:23.455Z,17.40
2022-12-07T01:41:29.325Z,19.10
2022-12-07T01:46:32.719Z,16.30
2022-12-07T01:51:39.032Z,17.60
2022-12-07T01:56:50.410Z,22.50
2022-12-07T02:01:56.404Z,18.40
2022-12-07T02:07:00.001Z,16.90
2022-12-07T02:12:04.335Z,13.80
2022-12-07T02:22:39.119Z,14.50
2022-12-07T02:27:53.282Z,13.40
2022-12-07T02:33:08.271Z,15.20
2022-12-07T02:38:27.862Z,17.00
2022-12-07T02:43:45.303Z,14.10
2022-12-07T02:48:50.708Z,13.80
2022-12-07T02:53:54.080Z,12.30
2022-12-07T02:59:11.661Z,10.30
2022-12-07T03:04:38.793Z,10.20
2022-12-07T03:09:51.316Z,10.60
2022-12-07T03:15:11.731Z,8.70
2022-12-07T03:20:20.669Z,6.80
2022-12-07T03:25:24.288Z,7.60
2022-12-07T03:30:41.194Z,6.90
2022-12-07T03:35:53.752Z,6.70
2022-12-07T03:41:13.439Z,6.80
2022-12-07T03:46:44.989Z,6.50
2022-12-07T03:52:02.047Z,7.90
2022-12-07T03:57:06.933Z,7.80
2022-12-07T04:02:14.297Z,8.90
2022-12-07T04:07:17.920Z,5.70
2022-12-07T04:12:21.535Z,4.30
2022-12-07T04:17:24.951Z,4.10
2022-12-07T04:22:28.359Z,3.60
2022-12-07T04:27:31.773Z,4.60
2022-12-07T04:32:35.084Z,5.80
2022-12-07T04:37:40.890Z,5.50
2022-12-07T04:42:44.162Z,3.70
2022-12-07T04:47:47.473Z,3.40
2022-12-07T04:52:50.888Z,4.70
2022-12-07T04:57:54.300Z,4.10
2022-12-07T05:02:57.814Z,3.70
2022-12-07T05:08:01.300Z,4.60
2022-12-07T05:13:04.846Z,6.10
2022-12-07T05:18:08.364Z,5.30
2022-12-07T05:23:12.287Z,3.20
2022-12-07T05:28:15.596Z,4.20
2022-12-07T05:33:18.910Z,2.80
2022-12-07T05:38:22.630Z,5.30
2022-12-07T05:43:25.942Z,6.20
2022-12-07T05:48:29.301Z,2.40
2022-12-07T05:53:32.663Z,3.60
2022-12-07T05:58:54.830Z,5.40
2022-12-07T06:03:58.231Z,3.20
2022-12-07T06:09:02.255Z,3.00
2022-12-07T06:14:05.773Z,4.50
2022-12-07T06:19:09.296Z,3.40
2022-12-07T06:24:14.548Z,3.70
2022-12-07T06:29:18.775Z,8.20
2022-12-07T06:39:29.644Z,15.10
2022-12-07T06:44:33.623Z,13.50
2022-12-07T06:49:37.036Z,14.70
2022-12-07T06:54:40.557Z,15.70
2022-12-07T06:59:44.071Z,16.50
2022-12-07T07:04:47.478Z,14.70
2022-12-07T07:09:51.102Z,14.50
2022-12-07T07:14:54.510Z,15.60
2022-12-07T07:19:57.927Z,12.90
2022-12-07T07:25:01.545Z,13.60
2022-12-07T07:30:05.984Z,15.80
2022-12-07T07:40:14.550Z,13.00
2022-12-07T07:45:19.190Z,14.20
2022-12-07T07:50:22.705Z,12.90
2022-12-07T07:55:25.958Z,19.80
2022-12-07T08:00:29.531Z,15.50
2022-12-07T08:05:32.947Z,16.80
2022-12-07T08:10:36.769Z,20.20
2022-12-07T08:15:42.501Z,17.20
2022-12-07T08:20:46.051Z,14.00
2022-12-07T08:25:49.463Z,11.10
2022-12-07T08:30:53.249Z,8.00
2022-12-07T08:36:11.551Z,9.60
2022-12-07T08:41:14.858Z,8.90
2022-12-07T08:46:39.075Z,10.50
2022-12-07T08:51:42.781Z,9.90
2022-12-07T08:56:50.921Z,6.40
2022-12-07T09:01:57.975Z,7.00
2022-12-07T09:07:01.597Z,5.30
2022-12-07T09:12:05.648Z,5.00
2022-12-07T09:17:10.946Z,3.60
2022-12-07T09:22:14.317Z,3.80
2022-12-07T09:27:19.060Z,3.20
2022-12-07T09:32:22.624Z,2.90
2022-12-07T09:37:26.191Z,2.10
2022-12-07T09:42:40.914Z,2.30
2022-12-07T09:47:44.692Z,3.40
2022-12-07T09:52:49.949Z,3.50
2022-12-07T09:57:53.932Z,3.00
2022-12-07T10:03:02.715Z,2.80
2022-12-07T10:08:07.019Z,3.40
2022-12-07T10:23:24.662Z,3.60
2022-12-07T10:28:41.867Z,2.20
2022-12-07T10:33:55.041Z,3.20
2022-12-07T10:39:12.070Z,3.00
2022-12-07T10:44:24.221Z,3.10
2022-12-07T10:50:02.928Z,2.60
2022-12-07T10:55:15.356Z,3.30
2022-12-07T11:00:26.686Z,5.60
2022-12-07T11:06:05.193Z,5.70
2022-12-07T11:11:15.361Z,9.20
2022-12-07T11:16:27.930Z,14.40
2022-12-07T11:21:42.461Z,13.90
2022-12-07T11:27:18.001Z,13.70
2022-12-07T11:32:39.771Z,11.10
2022-12-07T11:37:44.620Z,8.90
2022-12-07T11:43:07.180Z,11.90
2022-12-07T11:48:42.644Z,13.50
2022-12-07T11:53:47.797Z,15.20
2022-12-07T11:59:12.732Z,9.20
2022-12-07T12:04:52.378Z,13.60
2022-12-07T12:10:19.242Z,17.10
2022-12-07T12:16:01.594Z,14.30
2022-12-07T12:21:19.644Z,8.40
2022-12-07T12:26:27.926Z,8.60
2022-12-07T12:31:40.559Z,6.20
2022-12-07T12:36:46.953Z,11.70
2022-12-07T12:41:50.413Z,16.40
2022-12-07T12:47:23.896Z,14.10
2022-12-07T12:52:40.008Z,17.30
2022-12-07T12:57:43.420Z,19.30
2022-12-07T13:02:53.546Z,13.60
2022-12-07T13:08:04.097Z,11.30
2022-12-07T13:13:16.343Z,11.10
2022-12-07T13:18:28.507Z,8.40
2022-12-07T13:23:44.516Z,9.40
2022-12-07T13:28:50.948Z,10.00
2022-12-07T13:33:54.317Z,11.80
2022-12-07T13:39:00.285Z,10.80
2022-12-07T13:44:13.140Z,9.40
2022-12-07T13:49:22.489Z,8.00
2022-12-07T13:54:25.889Z,8.00
2022-12-07T13:59:29.300Z,8.10
2022-12-07T14:04:37.801Z,7.50
2022-12-07T14:09:41.040Z,8.70
2022-12-07T14:14:49.495Z,9.20
2022-12-07T14:20:01.305Z,8.40
2022-12-07T14:25:24.969Z,6.90
2022-12-07T14:30:34.200Z,8.10
2022-12-07T14:35:41.626Z,6.80
2022-12-07T14:40:44.833Z,6.70
2022-12-07T14:45:48.311Z,6.10
2022-12-07T14:56:18.012Z,7.60
2022-12-07T15:01:26.034Z,6.70
2022-12-07T15:06:29.652Z,7.00
2022-12-07T15:11:33.169Z,6.10
2022-12-07T15:17:06.780Z,6.80
2022-12-07T15:22:04.260Z,7.40
2022-12-07T15:27:07.876Z,7.20
2022-12-07T15:32:11.327Z,5.80
2022-12-07T15:37:14.911Z,5.00
2022-12-07T15:42:18.731Z,7.00
2022-12-07T15:47:22.143Z,5.00
2022-12-07T15:52:25.660Z,6.00
2022-12-07T15:57:29.072Z,8.70
2022-12-07T16:02:38.078Z,6.70
2022-12-07T16:07:44.704Z,6.80
2022-12-07T16:12:48.508Z,7.50
2022-12-07T16:17:53.072Z,7.70
2022-12-07T16:27:59.897Z,7.50
2022-12-07T16:33:03.308Z,6.30
2022-12-07T16:38:07.032Z,7.80
2022-12-07T16:43:13.746Z,9.40
2022-12-07T16:48:18.363Z,11.70
2022-12-07T16:53:23.208Z,13.60
2022-12-07T16:58:26.523Z,8.10
2022-12-07T17:03:29.827Z,7.60
2022-12-07T17:08:33.273Z,15.90
2022-12-07T17:13:55.700Z,12.30
2022-12-07T17:18:59.727Z,14.40
2022-12-07T17:24:05.672Z,15.40
2022-12-07T17:29:09.926Z,16.40
2022-12-07T17:34:16.191Z,21.30
2022-12-07T17:39:20.345Z,19.50
2022-12-07T17:44:24.064Z,21.50
2022-12-07T17:49:29.567Z,26.60
2022-12-07T17:54:32.838Z,18.20
2022-12-07T17:59:36.258Z,15.20
2022-12-07T18:04:42.221Z,20.40
2022-12-07T18:09:45.840Z,13.30
2022-12-07T18:14:51.199Z,13.70
2022-12-07T18:19:55.435Z,11.60
2022-12-07T18:49:31.135Z,19.70
2022-12-07T18:54:33.114Z,24.10
2022-12-07T18:59:48.513Z,16.20
2022-12-07T19:04:51.103Z,18.00
2022-12-07T19:09:53.289Z,21.60
2022-12-07T19:14:55.687Z,16.50
2022-12-07T19:19:57.869Z,12.50
2022-12-07T19:25:00.287Z,13.10
2022-12-07T19:30:04.284Z,21.70
2022-12-07T19:35:07.792Z,17.80
2022-12-07T19:40:10.286Z,14.10
2022-12-07T19:45:12.372Z,10.30
2022-12-07T19:50:14.448Z,12.20
2022-12-07T19:55:16.534Z,8.70
2022-12-07T20:00:19.124Z,8.00
2022-12-07T20:05:24.076Z,6.30
2022-12-07T20:10:26.534Z,10.10
2022-12-07T20:15:30.290Z,7.50
2022-12-07T20:20:32.678Z,6.30
2022-12-07T20:25:36.605Z,6.20
2022-12-07T20:30:49.291Z,7.80
2022-12-07T20:35:51.413Z,8.30
2022-12-07T20:40:53.398Z,7.40
2022-12-07T20:45:56.429Z,6.90
2022-12-07T20:51:05.547Z,9.50
2022-12-07T20:56:16.637Z,9.10
2022-12-07T21:01:19.277Z,6.90
2022-12-07T21:41:31.685Z,6.60
2022-12-07T21:46:36.326Z,5.60
2022-12-07T21:51:41.075Z,5.80
2022-12-07T21:56:45.613Z,5.30
2022-12-07T22:01:50.421Z,5.30
2022-12-07T22:06:57.282Z,4.40
2022-12-07T22:12:00.672Z,4.40
2022-12-07T22:17:04.604Z,3.90
2022-12-07T22:22:08.006Z,5.40
2022-12-07T22:27:11.929Z,4.40
2022-12-07T22:32:46.596Z,5.00
2022-12-07T22:37:38.627Z,3.70
2022-12-07T22:42:42.132Z,4.10
2022-12-07T22:47:45.656Z,3.80
2022-12-07T22:52:49.168Z,3.10
2022-12-07T22:57:52.991Z,4.20
2022-12-07T23:02:56.445Z,3.90
2022-12-07T23:08:00.571Z,3.80
2022-12-07T23:13:22.581Z,3.20
2022-12-07T23:18:26.204Z,3.10
2022-12-07T23:23:29.613Z,3.10
2022-12-07T23:28:34.366Z,4.10
2022-12-07T23:33:37.666Z,3.80
2022-12-07T23:38:43.030Z,3.90
2022-12-07T23:43:47.462Z,2.70
2022-12-07T23:53:59.000Z,3.20
2022-12-07T23:59:03.172Z,3.80
